Time;durP1;ratioP1;P1;durP2;ratioP2;P2;SDS_P1;SDS_P2;PMS_P1;PMS_P2;Temp;Humidity;BMP_temperature;BMP_pressure;BME280_temperature;BME280_humidity;BME280_pressure;Samples;Min_cycle;Max_cycle;Signal;HPM_P1;HPM_P2
2023/09/25 00:01:56;;;;;;;3.57;2.83;;;11.60;99.90;;;;;;5114378;28;20461;-63
2023/09/25 00:04:25;;;;;;;3.87;3.47;;;11.60;99.90;;;;;;5114356;28;20438;-62
2023/09/25 00:06:52;;;;;;;3.43;3.17;;;11.60;99.90;;;;;;5114160;28;20843;-61
2023/09/25 00:09:19;;;;;;;3.97;3.47;;;11.50;99.90;;;;;;5114362;28;20438;-61
2023/09/25 00:11:45;;;;;;;4.83;3.53;;;11.50;99.90;;;;;;5116418;28;20476;-61
2023/09/25 00:14:13;;;;;;;5.30;3.53;;;11.40;99.90;;;;;;5116599;28;20450;-62
2023/09/25 00:16:40;;;;;;;3.93;3.23;;;11.40;99.90;;;;;;5114984;28;20533;-60
2023/09/25 00:19:08;;;;;;;3.63;3.33;;;11.40;99.90;;;;;;5114793;28;20438;-61
2023/09/25 00:21:35;;;;;;;3.47;3.17;;;11.40;99.90;;;;;;5115329;28;20458;-62
2023/09/25 00:24:02;;;;;;;3.73;2.87;;;11.40;99.90;;;;;;5113991;28;20434;-62
2023/09/25 00:26:29;;;;;;;3.83;3.43;;;11.30;99.90;;;;;;5115812;28;20433;-62
2023/09/25 00:28:55;;;;;;;3.73;3.20;;;11.40;99.90;;;;;;5119836;28;20787;-62
2023/09/25 00:31:22;;;;;;;4.37;3.37;;;11.30;99.90;;;;;;5117809;28;20954;-62
2023/09/25 00:33:50;;;;;;;4.27;3.33;;;11.30;99.90;;;;;;5118491;28;20897;-61
2023/09/25 00:36:18;;;;;;;3.00;2.80;;;11.30;99.90;;;;;;5118543;28;20441;-62
2023/09/25 00:38:45;;;;;;;3.20;2.90;;;11.30;99.90;;;;;;5118004;28;20441;-62
2023/09/25 00:41:11;;;;;;;3.50;3.20;;;11.20;99.90;;;;;;5117962;28;20464;-62
2023/09/25 00:43:38;;;;;;;3.90;3.60;;;11.20;99.90;;;;;;5118900;28;20433;-62
2023/09/25 00:46:05;;;;;;;5.20;3.23;;;11.20;99.90;;;;;;5118857;28;20436;-60
2023/09/25 00:48:32;;;;;;;4.77;3.23;;;11.20;99.90;;;;;;5118828;28;20436;-61
2023/09/25 00:51:00;;;;;;;3.63;3.33;;;11.20;99.90;;;;;;5118290;28;20448;-62
2023/09/25 00:53:30;;;;;;;3.90;3.50;;;11.10;99.90;;;;;;5116793;28;20927;-61
2023/09/25 00:55:57;;;;;;;3.90;3.37;;;11.10;99.90;;;;;;5117162;28;20453;-61
2023/09/25 00:58:25;;;;;;;4.33;3.70;;;11.10;99.90;;;;;;5116966;28;20839;-61
2023/09/25 01:00:53;;;;;;;3.93;3.63;;;11.00;99.90;;;;;;5116670;28;20935;-61
2023/09/25 01:03:20;;;;;;;3.47;3.00;;;11.00;99.90;;;;;;5116523;28;20954;-61
2023/09/25 01:05:48;;;;;;;3.10;2.90;;;11.00;99.90;;;;;;5117220;28;20806;-60
2023/09/25 01:08:15;;;;;;;3.10;2.83;;;10.90;99.90;;;;;;5117178;28;20528;-61
2023/09/25 01:10:44;;;;;;;3.97;3.53;;;10.90;99.90;;;;;;5116929;28;20461;-62
2023/09/25 01:13:11;;;;;;;5.83;3.00;;;10.90;99.90;;;;;;5117044;28;20567;-61
2023/09/25 01:15:38;;;;;;;5.43;3.33;;;10.80;99.90;;;;;;5117130;28;20469;-61
2023/09/25 01:18:05;;;;;;;3.73;3.43;;;10.80;99.90;;;;;;5117023;28;20477;-61
2023/09/25 01:20:32;;;;;;;3.80;3.40;;;10.80;99.90;;;;;;5117056;27;20438;-61
2023/09/25 01:23:01;;;;;;;4.20;3.80;;;10.70;99.90;;;;;;5116853;28;20454;-62
2023/09/25 01:25:28;;;;;;;3.33;3.10;;;10.70;99.90;;;;;;5117043;28;20930;-61
2023/09/25 01:27:55;;;;;;;7.37;3.30;;;10.70;99.90;;;;;;5117581;28;20430;-60
2023/09/25 01:30:22;;;;;;;3.13;2.83;;;10.70;99.90;;;;;;5117264;28;20490;-62
2023/09/25 01:32:51;;;;;;;4.17;3.50;;;10.70;99.90;;;;;;5117497;28;20468;-61
2023/09/25 01:35:20;;;;;;;4.30;3.90;;;10.70;99.90;;;;;;5116648;28;20445;-61
2023/09/25 01:37:48;;;;;;;3.40;3.10;;;10.60;99.90;;;;;;5116382;28;20559;-61
2023/09/25 01:40:17;;;;;;;4.33;3.40;;;10.60;99.90;;;;;;5115171;28;20691;-61
2023/09/25 01:42:45;;;;;;;4.90;3.10;;;10.60;99.90;;;;;;5115835;28;20997;-62
2023/09/25 01:45:16;;;;;;;3.03;2.80;;;10.60;99.90;;;;;;5116001;28;20540;-60
2023/09/25 01:47:48;;;;;;;3.50;3.20;;;10.60;99.90;;;;;;5116128;28;20422;-61
2023/09/25 01:50:16;;;;;;;3.87;3.50;;;10.60;99.90;;;;;;5116014;28;20344;-61
2023/09/25 01:52:42;;;;;;;3.30;3.00;;;10.60;99.90;;;;;;5115697;28;20489;-62
2023/09/25 01:55:09;;;;;;;3.90;3.60;;;10.60;99.90;;;;;;5121733;28;20434;-62
2023/09/25 01:57:37;;;;;;;3.22;3.00;;;10.70;99.90;;;;;;5116128;28;20824;-61
2023/09/25 02:00:09;;;;;;;3.30;2.97;;;10.70;99.90;;;;;;5116239;28;20585;-61
2023/09/25 02:02:36;;;;;;;3.73;3.43;;;10.70;99.90;;;;;;5116344;28;20458;-61
2023/09/25 02:05:03;;;;;;;6.90;3.30;;;10.80;99.90;;;;;;5116052;28;20449;-61
2023/09/25 02:07:30;;;;;;;2.93;2.63;;;10.90;99.90;;;;;;5115639;28;20951;-62
2023/09/25 02:09:56;;;;;;;3.13;2.77;;;10.90;99.90;;;;;;5115203;28;20444;-62
2023/09/25 02:12:23;;;;;;;3.30;2.83;;;10.90;99.90;;;;;;5115906;28;20579;-61
2023/09/25 02:14:54;;;;;;;4.10;2.80;;;11.00;99.90;;;;;;5115621;28;20438;-61
2023/09/25 02:17:21;;;;;;;3.17;2.87;;;11.00;99.90;;;;;;5116126;28;20468;-62
2023/09/25 02:19:48;;;;;;;3.40;2.97;;;11.00;99.90;;;;;;5115887;28;20460;-62
2023/09/25 02:22:14;;;;;;;3.17;2.87;;;11.10;99.90;;;;;;5115265;28;20825;-62
2023/09/25 02:24:42;;;;;;;3.40;2.83;;;11.10;99.90;;;;;;5115289;28;20447;-61
2023/09/25 02:27:08;;;;;;;3.10;2.53;;;11.10;99.90;;;;;;5115391;28;20438;-61
2023/09/25 02:29:35;;;;;;;2.30;2.10;;;11.10;99.90;;;;;;5115385;28;20430;-62
2023/09/25 02:32:04;;;;;;;2.90;2.70;;;11.10;99.90;;;;;;5115370;28;20450;-61
2023/09/25 02:34:30;;;;;;;2.70;2.50;;;11.10;99.90;;;;;;5115252;28;20441;-61
2023/09/25 02:36:58;;;;;;;3.47;2.70;;;11.10;99.90;;;;;;5115233;28;20433;-61
2023/09/25 02:39:24;;;;;;;3.10;2.83;;;11.20;99.90;;;;;;5115039;28;20842;-61
2023/09/25 02:41:51;;;;;;;3.60;3.10;;;11.20;99.90;;;;;;5114918;28;20466;-60
2023/09/25 02:44:18;;;;;;;2.70;2.20;;;11.20;99.90;;;;;;5114978;28;20486;-61
2023/09/25 02:46:44;;;;;;;3.03;2.73;;;11.20;99.90;;;;;;5115262;28;20461;-61
2023/09/25 02:49:12;;;;;;;3.23;2.97;;;11.20;99.90;;;;;;5114975;28;20954;-61
2023/09/25 02:51:39;;;;;;;2.97;2.67;;;11.20;99.90;;;;;;5113435;28;20468;-61
2023/09/25 02:54:06;;;;;;;2.67;2.47;;;11.20;99.90;;;;;;5114808;28;20442;-61
2023/09/25 02:56:33;;;;;;;3.10;2.80;;;11.10;99.90;;;;;;5114543;28;20998;-62
2023/09/25 02:59:00;;;;;;;4.07;2.30;;;11.10;99.90;;;;;;5114453;28;20480;-61
2023/09/25 03:01:27;;;;;;;2.70;2.50;;;11.00;99.90;;;;;;5114456;28;20460;-61
2023/09/25 03:03:53;;;;;;;2.93;2.63;;;11.00;99.90;;;;;;5115429;28;20788;-61
2023/09/25 03:06:21;;;;;;;3.40;2.70;;;11.00;99.90;;;;;;5114753;28;20433;-61
2023/09/25 03:08:48;;;;;;;3.53;2.83;;;11.00;99.90;;;;;;5114396;28;20430;-61
2023/09/25 03:11:15;;;;;;;2.93;2.63;;;10.90;99.90;;;;;;5113882;28;20470;-61
2023/09/25 03:13:42;;;;;;;3.13;2.70;;;10.90;99.90;;;;;;5114367;28;20524;-59
2023/09/25 03:16:16;;;;;;;2.77;2.57;;;10.90;99.90;;;;;;5114442;28;20494;-61
2023/09/25 03:18:43;;;;;;;5.50;3.10;;;10.90;99.90;;;;;;5114812;28;20473;-61
2023/09/25 03:21:12;;;;;;;5.43;2.40;;;10.80;99.90;;;;;;5114317;28;20464;-61
2023/09/25 03:23:40;;;;;;;3.20;2.83;;;10.80;99.90;;;;;;5113978;28;20791;-61
2023/09/25 03:26:14;;;;;;;3.20;2.80;;;10.80;99.90;;;;;;5114043;28;20947;-61
2023/09/25 03:28:41;;;;;;;3.33;3.03;;;10.80;99.90;;;;;;5114348;28;20824;-61
2023/09/25 03:31:08;;;;;;;3.30;3.00;;;10.70;99.90;;;;;;5114226;28;20465;-61
2023/09/25 03:33:34;;;;;;;3.87;3.13;;;10.70;99.90;;;;;;5114759;28;20437;-61
2023/09/25 03:36:01;;;;;;;7.00;2.90;;;10.70;99.90;;;;;;5115518;28;20438;-61
2023/09/25 03:38:28;;;;;;;3.80;3.50;;;10.70;99.90;;;;;;5114716;28;20550;-61
2023/09/25 03:40:56;;;;;;;3.50;3.20;;;10.70;99.90;;;;;;5114009;28;20442;-61
2023/09/25 03:43:23;;;;;;;3.90;3.50;;;10.70;99.90;;;;;;5114229;28;20925;-61
2023/09/25 03:45:50;;;;;;;5.27;3.50;;;10.70;99.90;;;;;;5114423;28;20445;-61
2023/09/25 03:48:17;;;;;;;4.40;3.37;;;10.70;99.90;;;;;;5114282;28;20452;-61
2023/09/25 03:50:44;;;;;;;3.17;2.87;;;10.60;99.90;;;;;;5115276;28;20444;-61
2023/09/25 03:53:11;;;;;;;4.80;3.70;;;10.60;99.90;;;;;;5115462;28;20437;-61
2023/09/25 03:55:38;;;;;;;5.03;3.70;;;10.50;99.90;;;;;;5114704;28;20448;-59
2023/09/25 03:58:06;;;;;;;4.83;4.00;;;10.50;99.90;;;;;;5114907;28;20576;-61
2023/09/25 04:00:42;;;;;;;5.77;3.90;;;10.50;99.90;;;;;;5115141;28;20437;-60
2023/09/25 04:03:09;;;;;;;4.60;3.57;;;10.50;99.90;;;;;;5115181;28;20457;-61
2023/09/25 04:05:36;;;;;;;4.43;4.03;;;10.50;99.90;;;;;;5115226;28;20444;-62
2023/09/25 04:08:03;;;;;;;4.07;3.67;;;10.40;99.90;;;;;;5115615;28;20434;-61
2023/09/25 04:12:16;;;;;;;3.93;3.63;;;10.40;99.90;;;;;;5092808;28;20550;-60
2023/09/25 04:14:42;;;;;;;4.20;3.80;;;10.30;99.90;;;;;;5098158;28;20454;-60
2023/09/25 04:17:10;;;;;;;3.83;3.40;;;10.30;99.90;;;;;;5095819;28;20439;-61
2023/09/25 04:19:37;;;;;;;5.83;4.73;;;10.30;99.90;;;;;;5094128;28;20434;-62
2023/09/25 04:22:06;;;;;;;4.67;4.10;;;10.30;99.90;;;;;;5093246;28;20524;-61
2023/09/25 04:24:34;;;;;;;4.32;3.88;;;10.20;99.90;;;;;;5093855;28;20439;-62
2023/09/25 04:27:02;;;;;;;3.97;3.60;;;10.20;99.90;;;;;;5095096;28;20268;-60
2023/09/25 04:29:30;;;;;;;3.40;3.10;;;10.20;99.90;;;;;;5097537;28;20443;-61
2023/09/25 04:31:57;;;;;;;4.00;3.60;;;10.20;99.90;;;;;;5095824;28;20482;-61
2023/09/25 04:34:24;;;;;;;4.33;3.33;;;10.20;99.90;;;;;;5096939;28;20199;-61
2023/09/25 04:36:52;;;;;;;3.90;3.60;;;10.20;99.90;;;;;;5096458;28;20832;-61
2023/09/25 04:39:20;;;;;;;6.10;3.87;;;10.20;99.90;;;;;;5097536;28;20258;-59
2023/09/25 04:41:47;;;;;;;4.55;3.75;;;10.20;99.90;;;;;;5094327;28;20960;-62
2023/09/25 04:44:14;;;;;;;4.13;3.70;;;10.30;99.90;;;;;;5091902;28;20201;-61
2023/09/25 04:46:42;;;;;;;4.50;4.10;;;10.20;99.90;;;;;;5092363;28;20282;-61
2023/09/25 04:49:11;;;;;;;4.30;3.90;;;10.20;99.90;;;;;;5091933;28;20514;-61
2023/09/25 04:51:37;;;;;;;4.20;3.60;;;10.20;99.90;;;;;;5093211;28;20483;-60
2023/09/25 04:54:05;;;;;;;4.60;4.10;;;10.20;99.90;;;;;;5094579;28;20449;-61
2023/09/25 04:56:32;;;;;;;4.57;4.20;;;10.20;99.90;;;;;;5093858;28;20443;-60
2023/09/25 04:58:59;;;;;;;5.43;4.10;;;10.10;99.90;;;;;;5093240;28;20451;-61
2023/09/25 05:01:25;;;;;;;4.20;3.77;;;10.10;99.90;;;;;;5093027;28;20459;-61
2023/09/25 05:03:53;;;;;;;6.03;4.53;;;10.20;99.90;;;;;;5094232;28;20452;-61
2023/09/25 05:06:20;;;;;;;4.23;3.83;;;10.20;99.90;;;;;;5094604;28;20205;-61
2023/09/25 05:08:48;;;;;;;5.83;3.80;;;10.20;99.90;;;;;;5093156;28;20485;-60
2023/09/25 05:11:15;;;;;;;3.95;3.55;;;10.20;99.90;;;;;;5092946;28;20478;-62
2023/09/25 05:13:42;;;;;;;4.80;4.30;;;10.30;99.90;;;;;;5091949;28;20692;-61
2023/09/25 05:16:08;;;;;;;4.60;4.20;;;10.30;99.90;;;;;;5090868;28;20443;-61
2023/09/25 05:18:35;;;;;;;4.70;4.30;;;10.30;99.90;;;;;;5090341;28;20443;-60
2023/09/25 05:21:03;;;;;;;5.25;4.57;;;10.30;99.90;;;;;;5090644;28;20435;-61
2023/09/25 05:23:32;;;;;;;5.05;4.55;;;10.30;99.90;;;;;;5077958;28;20210;-61
2023/09/25 05:25:59;;;;;;;5.85;4.30;;;10.40;99.90;;;;;;5077269;28;20243;-61
2023/09/25 05:28:26;;;;;;;4.72;4.15;;;10.40;99.90;;;;;;5077395;28;20205;-62
2023/09/25 05:30:54;;;;;;;5.25;3.67;;;10.40;99.90;;;;;;5077696;28;20224;-60
2023/09/25 05:33:20;;;;;;;5.07;4.10;;;10.50;99.90;;;;;;5077099;28;20556;-62
2023/09/25 05:35:47;;;;;;;4.53;4.13;;;10.50;99.90;;;;;;5076333;28;20443;-60
2023/09/25 05:38:16;;;;;;;5.53;4.70;;;10.50;99.90;;;;;;5077982;28;20450;-60
2023/09/25 05:40:42;;;;;;;4.80;4.03;;;10.50;99.90;;;;;;5077310;28;20442;-61
2023/09/25 05:43:09;;;;;;;6.63;4.80;;;10.60;99.90;;;;;;5076140;28;20976;-60
2023/09/25 05:45:36;;;;;;;7.13;4.80;;;10.70;99.90;;;;;;5077173;28;21002;-60
2023/09/25 05:48:04;;;;;;;5.13;4.63;;;10.70;99.90;;;;;;5077136;28;20534;-60
2023/09/25 05:50:33;;;;;;;5.77;4.60;;;10.70;99.90;;;;;;5076252;28;20446;-61
2023/09/25 05:53:01;;;;;;;5.47;4.27;;;10.80;99.90;;;;;;5075958;28;20460;-61
2023/09/25 05:55:29;;;;;;;5.03;3.90;;;10.90;99.90;;;;;;5075723;28;20440;-61
2023/09/25 05:57:56;;;;;;;4.53;4.00;;;10.90;99.90;;;;;;5076219;28;20530;-61
2023/09/25 06:00:23;;;;;;;5.17;4.43;;;11.00;99.90;;;;;;5076379;28;20443;-62
2023/09/25 06:02:50;;;;;;;5.20;4.70;;;11.10;99.90;;;;;;5076130;28;20465;-62
2023/09/25 06:05:17;;;;;;;5.73;4.50;;;11.20;99.90;;;;;;5075580;28;20443;-61
2023/09/25 06:07:44;;;;;;;4.50;4.10;;;11.30;99.90;;;;;;5075567;28;20936;-62
2023/09/25 06:10:12;;;;;;;4.23;3.80;;;11.40;99.90;;;;;;5076063;28;20455;-61
2023/09/25 06:12:40;;;;;;;6.13;4.20;;;11.40;99.90;;;;;;5075831;28;20536;-61
2023/09/25 06:15:10;;;;;;;6.07;4.63;;;11.50;99.90;;;;;;5076747;28;20541;-60
2023/09/25 06:17:37;;;;;;;6.50;4.20;;;11.60;99.90;;;;;;5076140;28;20439;-61
2023/09/25 06:20:04;;;;;;;7.23;4.37;;;11.60;99.90;;;;;;5077028;28;20453;-60
2023/09/25 06:22:33;;;;;;;6.27;4.63;;;11.70;99.90;;;;;;5076092;28;20969;-61
2023/09/25 06:25:00;;;;;;;4.80;4.17;;;11.80;99.90;;;;;;5075736;28;20917;-61
2023/09/25 06:27:30;;;;;;;5.20;4.20;;;11.90;99.90;;;;;;5075081;28;20461;-61
2023/09/25 06:29:58;;;;;;;10.73;4.67;;;12.00;99.90;;;;;;5075747;28;20462;-61
2023/09/25 06:32:25;;;;;;;8.40;4.17;;;12.00;99.90;;;;;;5076341;28;20567;-60
2023/09/25 06:34:51;;;;;;;4.73;4.33;;;12.10;99.90;;;;;;5075845;28;20479;-61
2023/09/25 06:37:18;;;;;;;6.80;4.10;;;12.10;99.90;;;;;;5076873;28;20443;-62
2023/09/25 06:39:45;;;;;;;7.47;4.07;;;12.20;99.90;;;;;;5077652;28;20447;-62
2023/09/25 06:42:12;;;;;;;5.27;3.67;;;12.30;99.90;;;;;;5077972;28;20455;-60
2023/09/25 06:44:39;;;;;;;4.90;3.43;;;12.30;99.90;;;;;;5078531;28;20452;-60
2023/09/25 06:47:07;;;;;;;5.73;3.97;;;12.40;99.90;;;;;;5079423;28;20439;-61
2023/09/25 06:49:34;;;;;;;5.77;3.43;;;12.50;99.90;;;;;;5079777;28;20518;-61
2023/09/25 06:52:01;;;;;;;5.13;4.13;;;12.60;99.90;;;;;;5075179;28;20968;-60
2023/09/25 06:54:28;;;;;;;6.40;5.10;;;12.80;99.90;;;;;;5078627;28;20449;-62
2023/09/25 06:56:55;;;;;;;6.40;3.90;;;12.90;99.90;;;;;;5078797;28;20442;-60
2023/09/25 06:59:22;;;;;;;4.60;3.07;;;13.00;99.90;;;;;;5080483;28;20440;-60
2023/09/25 07:01:48;;;;;;;6.47;4.53;;;13.10;99.90;;;;;;5080558;28;20467;-62
2023/09/25 07:04:16;;;;;;;4.10;3.70;;;13.20;99.90;;;;;;5078042;28;20446;-62
2023/09/25 07:06:43;;;;;;;3.70;3.40;;;13.30;99.90;;;;;;5074443;28;20506;-60
2023/09/25 07:09:14;;;;;;;6.43;3.57;;;13.40;99.90;;;;;;5074877;28;20457;-60
2023/09/25 07:11:41;;;;;;;9.10;3.30;;;13.50;99.90;;;;;;5076232;28;20584;-61
2023/09/25 07:14:08;;;;;;;3.50;3.20;;;13.60;99.90;;;;;;5075898;28;20435;-62
2023/09/25 07:16:35;;;;;;;4.00;3.50;;;13.70;99.90;;;;;;5074747;28;20488;-59
2023/09/25 07:19:02;;;;;;;3.97;3.60;;;13.80;99.90;;;;;;5074635;28;20804;-62
2023/09/25 07:21:30;;;;;;;3.67;3.37;;;13.90;99.90;;;;;;5074437;28;20784;-62
2023/09/25 07:23:57;;;;;;;4.13;2.80;;;14.00;99.90;;;;;;5075980;28;20443;-61
2023/09/25 07:26:23;;;;;;;6.70;3.97;;;14.20;99.90;;;;;;5074534;28;20437;-61
2023/09/25 07:28:51;;;;;;;4.10;3.70;;;14.30;99.90;;;;;;5074314;28;20792;-61
2023/09/25 07:31:22;;;;;;;4.20;3.30;;;14.40;99.90;;;;;;5074781;28;20482;-61
2023/09/25 07:33:49;;;;;;;3.43;3.10;;;14.50;99.90;;;;;;5074165;28;21012;-61
2023/09/25 07:36:20;;;;;;;7.00;3.30;;;14.70;99.90;;;;;;5075011;28;20494;-60
2023/09/25 07:38:48;;;;;;;3.57;3.27;;;14.80;99.90;;;;;;5074186;28;20467;-60
2023/09/25 07:41:15;;;;;;;6.30;3.10;;;14.90;99.90;;;;;;5074967;28;20913;-61
2023/09/25 07:43:42;;;;;;;3.63;3.33;;;15.00;99.90;;;;;;5074379;28;20539;-61
2023/09/25 07:46:09;;;;;;;3.60;2.63;;;15.10;99.90;;;;;;5075629;28;20509;-61
2023/09/25 07:48:37;;;;;;;4.60;3.00;;;15.20;99.90;;;;;;5075435;28;20538;-61
2023/09/25 07:51:05;;;;;;;3.50;3.10;;;15.30;99.90;;;;;;5075507;28;20493;-60
2023/09/25 07:53:32;;;;;;;4.60;3.10;;;15.30;99.90;;;;;;5074918;28;20444;-61
2023/09/25 07:56:00;;;;;;;3.07;2.77;;;15.40;99.90;;;;;;5075343;28;20550;-60
2023/09/25 07:58:28;;;;;;;5.40;2.80;;;15.50;99.90;;;;;;5074518;28;20439;-61
2023/09/25 08:01:00;;;;;;;4.17;3.03;;;15.50;99.80;;;;;;5075146;28;20435;-60
2023/09/25 08:03:27;;;;;;;4.20;2.87;;;15.60;99.40;;;;;;5074978;28;20967;-60
2023/09/25 08:05:54;;;;;;;2.73;2.13;;;15.70;99.00;;;;;;5074873;28;20496;-60
2023/09/25 08:08:21;;;;;;;3.30;2.93;;;15.80;98.60;;;;;;5073732;28;20439;-61
2023/09/25 08:10:47;;;;;;;3.47;2.43;;;15.90;98.20;;;;;;5074600;28;20458;-60
2023/09/25 08:13:18;;;;;;;3.60;3.00;;;16.00;97.60;;;;;;5073664;28;20475;-61
2023/09/25 08:15:44;;;;;;;6.20;2.97;;;16.20;97.20;;;;;;5073645;28;20436;-61
2023/09/25 08:18:11;;;;;;;2.80;2.60;;;16.30;96.70;;;;;;5073809;28;20446;-62
2023/09/25 08:20:39;;;;;;;2.73;2.47;;;16.50;96.20;;;;;;5074233;28;20473;-61
2023/09/25 08:23:07;;;;;;;3.30;2.77;;;16.60;95.60;;;;;;5073579;28;20465;-60
2023/09/25 08:25:34;;;;;;;3.77;2.23;;;16.70;95.00;;;;;;5074024;28;20459;-59
2023/09/25 08:28:01;;;;;;;2.57;2.37;;;16.80;94.40;;;;;;5074054;28;20436;-61
2023/09/25 08:30:31;;;;;;;2.70;2.23;;;16.90;93.80;;;;;;5074357;28;20451;-61
2023/09/25 08:32:58;;;;;;;2.90;2.60;;;17.10;93.20;;;;;;5074234;28;20544;-60
2023/09/25 08:35:25;;;;;;;4.83;2.20;;;17.20;93.10;;;;;;5073642;28;20446;-60
2023/09/25 08:37:52;;;;;;;2.73;2.00;;;17.40;92.20;;;;;;5073767;28;20437;-62
2023/09/25 08:40:19;;;;;;;6.27;2.87;;;17.50;91.50;;;;;;5073941;28;20447;-62
2023/09/25 08:42:47;;;;;;;2.63;2.43;;;17.60;91.00;;;;;;5073945;28;20481;-61
2023/09/25 08:45:15;;;;;;;2.00;1.90;;;17.70;90.40;;;;;;5073961;28;20909;-60
2023/09/25 08:47:45;;;;;;;3.97;2.87;;;17.90;89.50;;;;;;5073780;28;20440;-60
2023/09/25 08:50:12;;;;;;;2.60;1.93;;;17.90;88.10;;;;;;5073153;28;20451;-62
2023/09/25 08:52:40;;;;;;;2.30;1.87;;;18.00;86.90;;;;;;5073174;28;20487;-61
2023/09/25 08:55:09;;;;;;;3.00;2.73;;;18.10;86.10;;;;;;5074158;28;20485;-61
2023/09/25 08:57:38;;;;;;;2.43;2.20;;;18.20;85.00;;;;;;5075065;28;20443;-61
2023/09/25 09:00:11;;;;;;;2.53;2.10;;;18.30;84.20;;;;;;5078217;28;20478;-61
2023/09/25 09:02:39;;;;;;;2.20;2.00;;;18.40;83.30;;;;;;5077877;28;20487;-60
2023/09/25 09:05:08;;;;;;;2.80;2.53;;;18.50;82.30;;;;;;5078866;28;20445;-59
2023/09/25 09:07:34;;;;;;;4.77;2.40;;;18.60;81.40;;;;;;5077997;28;20441;-61
2023/09/25 09:10:01;;;;;;;4.20;2.23;;;18.60;80.50;;;;;;5078065;28;20905;-61
2023/09/25 09:12:28;;;;;;;4.00;2.50;;;18.70;79.60;;;;;;5077212;28;20479;-61
2023/09/25 09:14:55;;;;;;;2.00;1.90;;;18.80;78.40;;;;;;5077469;28;20439;-61
2023/09/25 09:17:26;;;;;;;2.57;1.90;;;18.80;77.20;;;;;;5077473;28;20451;-61
2023/09/25 09:19:53;;;;;;;3.07;2.23;;;18.80;76.30;;;;;;5078317;28;20420;-62
2023/09/25 09:22:22;;;;;;;3.37;2.13;;;18.90;75.40;;;;;;5078905;28;20525;-61
2023/09/25 09:24:51;;;;;;;2.77;2.00;;;19.00;74.50;;;;;;5079728;28;20450;-61
2023/09/25 09:27:21;;;;;;;3.77;2.37;;;19.00;73.80;;;;;;5078542;28;20984;-60
2023/09/25 09:29:52;;;;;;;2.30;2.00;;;19.00;73.10;;;;;;5080630;28;20450;-61
2023/09/25 09:32:19;;;;;;;4.80;2.93;;;19.10;72.70;;;;;;5080892;28;20550;-61
2023/09/25 09:34:48;;;;;;;5.57;2.60;;;19.20;72.00;;;;;;5081412;28;20465;-61
2023/09/25 09:37:16;;;;;;;3.70;2.00;;;19.20;71.30;;;;;;5082631;28;20439;-62
2023/09/25 09:39:52;;;;;;;2.80;2.60;;;19.30;70.80;;;;;;5082282;28;20443;-62
2023/09/25 09:42:21;;;;;;;2.77;2.17;;;19.40;70.50;;;;;;5083482;28;20492;-61
2023/09/25 09:44:48;;;;;;;3.40;2.10;;;19.40;70.00;;;;;;5080612;28;20447;-61
2023/09/25 09:47:20;;;;;;;2.20;1.80;;;19.50;70.20;;;;;;5081756;28;20545;-59
2023/09/25 09:49:48;;;;;;;4.63;2.27;;;19.50;68.70;;;;;;5081652;28;20437;-62
2023/09/25 09:52:19;;;;;;;2.17;1.97;;;19.50;68.40;;;;;;5081774;28;20487;-62
2023/09/25 09:54:50;;;;;;;3.40;2.00;;;19.50;68.00;;;;;;5082662;28;20429;-62
2023/09/25 09:57:19;;;;;;;2.57;1.87;;;19.50;67.50;;;;;;5081510;28;20427;-62
2023/09/25 09:59:48;;;;;;;2.53;1.83;;;19.60;67.20;;;;;;5082681;28;20463;-60
2023/09/25 10:02:16;;;;;;;2.43;2.23;;;19.60;66.70;;;;;;5082319;28;20557;-60
2023/09/25 10:04:44;;;;;;;2.47;1.80;;;19.70;66.20;;;;;;5081881;28;20456;-61
2023/09/25 10:07:10;;;;;;;4.57;1.73;;;19.70;65.80;;;;;;5081342;28;20458;-61
2023/09/25 10:09:37;;;;;;;2.83;2.13;;;19.80;65.30;;;;;;5082550;28;20449;-61
2023/09/25 10:12:06;;;;;;;1.63;1.53;;;19.80;64.90;;;;;;5080379;28;20494;-61
2023/09/25 10:14:43;;;;;;;2.73;2.00;;;19.90;64.60;;;;;;5079960;28;20454;-61
2023/09/25 10:17:10;;;;;;;4.30;1.80;;;19.90;64.10;;;;;;5079890;28;20844;-60
2023/09/25 10:19:48;;;;;;;2.50;2.10;;;20.00;63.70;;;;;;5081875;28;20515;-62
2023/09/25 10:22:19;;;;;;;2.83;1.70;;;20.10;63.10;;;;;;5080167;28;20454;-62
2023/09/25 10:24:47;;;;;;;5.40;1.97;;;20.10;62.60;;;;;;5080588;28;20426;-62
2023/09/25 10:27:17;;;;;;;3.20;1.70;;;20.20;62.50;;;;;;5078545;28;20937;-60
2023/09/25 10:30:02;;;;;;;2.30;1.80;;;20.30;62.10;;;;;;5077911;28;20435;-61
2023/09/25 10:32:32;;;;;;;2.50;2.10;;;20.40;61.50;;;;;;5077289;28;20490;-61
2023/09/25 10:35:21;;;;;;;3.30;1.80;;;20.50;61.10;;;;;;5077043;28;20447;-61
2023/09/25 10:38:07;;;;;;;2.50;1.73;;;20.60;60.50;;;;;;5075868;28;20439;-61
2023/09/25 10:40:36;;;;;;;1.70;1.60;;;20.80;60.00;;;;;;5077275;28;20423;-61
2023/09/25 10:43:05;;;;;;;2.20;1.60;;;20.90;59.80;;;;;;5078421;28;20467;-61
2023/09/25 10:45:32;;;;;;;2.37;1.80;;;20.90;59.30;;;;;;5075604;28;20445;-61
2023/09/25 10:47:58;;;;;;;4.90;1.90;;;21.00;59.20;;;;;;5075561;28;20907;-60
2023/09/25 10:50:25;;;;;;;3.07;1.80;;;21.00;59.10;;;;;;5075960;28;20467;-61
2023/09/25 10:52:52;;;;;;;3.00;1.50;;;21.10;59.00;;;;;;5074463;28;20483;-62
2023/09/25 10:55:20;;;;;;;2.47;1.90;;;21.10;58.90;;;;;;5074511;28;20814;-61
2023/09/25 10:57:47;;;;;;;3.40;1.90;;;21.10;58.60;;;;;;5075022;28;20514;-61
2023/09/25 11:00:18;;;;;;;1.70;1.33;;;21.10;58.40;;;;;;5074032;28;20443;-59
2023/09/25 11:02:45;;;;;;;4.00;3.00;;;21.10;58.40;;;;;;5074814;28;20484;-61
2023/09/25 11:05:12;;;;;;;2.93;2.00;;;21.20;58.10;;;;;;5075229;28;20447;-60
2023/09/25 11:07:39;;;;;;;2.73;1.73;;;21.20;57.80;;;;;;5076149;28;20452;-61
2023/09/25 11:10:10;;;;;;;3.83;1.60;;;21.20;57.50;;;;;;5079022;28;20796;-61
2023/09/25 11:12:37;;;;;;;2.30;2.00;;;21.30;57.50;;;;;;5075325;28;20505;-62
2023/09/25 11:15:10;;;;;;;2.20;2.00;;;21.30;57.20;;;;;;5075167;28;20464;-62
2023/09/25 11:17:39;;;;;;;3.13;1.90;;;21.40;57.00;;;;;;5075194;28;20427;-61
2023/09/25 11:20:11;;;;;;;3.37;2.20;;;21.40;56.90;;;;;;5074385;28;20452;-60
2023/09/25 11:22:39;;;;;;;6.97;4.60;;;21.40;56.80;;;;;;5073882;28;20481;-61
2023/09/25 11:25:11;;;;;;;3.37;2.20;;;21.50;56.80;;;;;;5074596;28;20441;-60
2023/09/25 11:27:38;;;;;;;3.40;2.40;;;21.60;56.70;;;;;;5074027;28;20766;-61
2023/09/25 11:30:11;;;;;;;2.03;1.80;;;21.60;56.50;;;;;;5074176;28;20465;-61
2023/09/25 11:32:40;;;;;;;2.57;1.97;;;21.70;56.30;;;;;;5073928;28;20482;-61
2023/09/25 11:35:11;;;;;;;5.50;1.87;;;21.70;55.90;;;;;;5074309;28;20942;-61
2023/09/25 11:37:37;;;;;;;2.77;1.80;;;21.70;55.60;;;;;;5074464;28;20460;-61
2023/09/25 11:40:07;;;;;;;3.23;1.93;;;21.70;55.60;;;;;;5075096;28;20457;-60
2023/09/25 11:42:34;;;;;;;2.57;1.70;;;21.70;55.60;;;;;;5076189;28;21070;-60
2023/09/25 11:45:00;;;;;;;2.70;2.10;;;21.70;55.40;;;;;;5088252;28;20497;-62
2023/09/25 11:47:27;;;;;;;3.50;2.50;;;21.70;55.20;;;;;;5086900;28;20454;-60
2023/09/25 11:49:56;;;;;;;2.53;2.07;;;21.70;54.90;;;;;;5083013;28;20514;-61
2023/09/25 11:52:23;;;;;;;3.40;1.80;;;21.70;54.60;;;;;;5075418;28;20470;-61
2023/09/25 11:54:50;;;;;;;2.23;2.03;;;21.80;54.60;;;;;;5075537;28;20457;-60
2023/09/25 11:57:17;;;;;;;3.50;1.90;;;21.80;54.30;;;;;;5076863;28;20450;-61
2023/09/25 11:59:44;;;;;;;3.37;2.03;;;21.90;54.20;;;;;;5075128;28;20791;-60
2023/09/25 12:02:11;;;;;;;4.93;1.67;;;21.90;53.90;;;;;;5074590;28;20460;-61
2023/09/25 12:04:39;;;;;;;2.70;2.10;;;21.90;53.70;;;;;;5075673;28;20461;-61
2023/09/25 12:07:07;;;;;;;6.70;1.83;;;21.90;53.90;;;;;;5074891;28;20534;-60
2023/09/25 12:09:34;;;;;;;2.50;1.90;;;22.00;53.80;;;;;;5074051;28;20449;-61
2023/09/25 12:12:00;;;;;;;3.57;2.00;;;22.10;53.50;;;;;;5074572;28;20473;-62
2023/09/25 12:14:27;;;;;;;2.67;1.87;;;22.10;53.30;;;;;;5074229;28;20480;-62
2023/09/25 12:16:54;;;;;;;4.00;2.10;;;22.20;53.30;;;;;;5075047;28;20972;-61
2023/09/25 12:19:21;;;;;;;4.13;2.10;;;22.10;53.10;;;;;;5074227;28;20443;-59
2023/09/25 12:21:48;;;;;;;2.20;1.43;;;22.20;53.00;;;;;;5074311;28;20550;-62
2023/09/25 12:24:18;;;;;;;3.30;1.70;;;22.20;52.80;;;;;;5074681;28;20439;-60
2023/09/25 12:26:45;;;;;;;1.97;1.70;;;22.20;52.80;;;;;;5073975;28;20435;-59
2023/09/25 12:29:13;;;;;;;2.03;1.83;;;22.20;52.80;;;;;;5073638;28;20455;-61
2023/09/25 12:31:39;;;;;;;3.73;1.70;;;22.20;52.40;;;;;;5074314;28;20466;-62
2023/09/25 12:34:06;;;;;;;3.00;1.67;;;22.10;52.20;;;;;;5077734;28;20478;-61
2023/09/25 12:36:33;;;;;;;2.20;1.83;;;22.10;52.20;;;;;;5077526;28;20443;-60
2023/09/25 12:39:00;;;;;;;1.93;1.63;;;22.20;52.10;;;;;;5077565;28;20439;-61
2023/09/25 12:41:28;;;;;;;5.23;2.60;;;22.20;51.90;;;;;;5078030;28;20480;-61
2023/09/25 12:43:55;;;;;;;3.00;2.20;;;22.20;51.80;;;;;;5077527;28;20485;-62
2023/09/25 12:46:22;;;;;;;3.27;1.83;;;22.10;51.80;;;;;;5077917;28;21006;-61
2023/09/25 12:48:48;;;;;;;2.87;1.60;;;22.20;51.70;;;;;;5078448;28;20445;-61
2023/09/25 12:51:15;;;;;;;4.13;2.00;;;22.20;51.50;;;;;;5077329;28;20514;-62
2023/09/25 12:53:42;;;;;;;2.20;1.80;;;22.20;51.40;;;;;;5076978;28;21007;-62